Newport, Canada
Current Conditions -  °F | °C
As of 2:00 PM on Monday 22 Dec 2014 (Local Time) from CYGP Reporting Station
Broken Clouds Broken Clouds  
Wind Chill: 11°   Ceiling: 2000
Heat Index: 19°   Visibility: 15mi
Dew Point: 12°   Wind: 6mph
Humidity: 74%   Direction: 300°WNW
Pressure: 30.44"   Gusts: NA
Location:  48.27°N, 64.75°W
Report Text: CYGP 221900Z 30005KT 15SM BKN020 M07/M11 A3044 RMK CU6 SLP312
Loading
Personal Weather Stations






























Interactive Weather Map New forecast layout! Learn more

10-Day Weather Forecast

Advertisements
Track Severe Weather on mobile